createdAt,value
2023-03-26T00:05:14.585Z,16.87
2023-03-26T00:15:16.273Z,16.88
2023-03-26T00:25:17.845Z,16.86
2023-03-26T00:35:19.310Z,16.87
2023-03-26T00:45:21.998Z,16.86
2023-03-26T00:55:23.463Z,16.84
2023-03-26T01:05:33.877Z,16.83
2023-03-26T01:15:37.119Z,16.81
2023-03-26T01:25:40.232Z,16.81
2023-03-26T01:36:08.396Z,16.80
2023-03-26T01:46:10.749Z,16.79
2023-03-26T01:56:25.965Z,16.81
2023-03-26T02:06:37.513Z,16.78
2023-03-26T02:16:38.926Z,16.77
2023-03-26T02:26:40.328Z,16.73
2023-03-26T02:36:42.928Z,16.71
2023-03-26T02:46:44.420Z,16.66
2023-03-26T02:56:45.972Z,16.61
2023-03-26T03:06:47.363Z,16.57
2023-03-26T03:16:48.922Z,16.53
2023-03-26T03:26:54.889Z,16.47
2023-03-26T03:36:56.275Z,16.46
2023-03-26T03:46:57.677Z,16.44
2023-03-26T03:56:59.301Z,16.41
2023-03-26T04:07:01.102Z,16.41
2023-03-26T04:17:05.171Z,16.44
2023-03-26T04:27:08.904Z,16.78
2023-03-26T04:37:10.833Z,17.01
2023-03-26T04:47:13.198Z,17.32
2023-03-26T04:57:29.399Z,17.58
2023-03-26T05:07:31.487Z,17.76
2023-03-26T05:17:34.823Z,17.79
2023-03-26T05:27:36.640Z,17.82
2023-03-26T05:37:38.963Z,17.83
2023-03-26T05:47:40.514Z,17.81
2023-03-26T05:57:42.473Z,17.78
2023-03-26T06:07:43.876Z,17.79
2023-03-26T06:17:45.918Z,17.80
2023-03-26T06:27:47.319Z,17.81
2023-03-26T06:37:48.696Z,17.82
2023-03-26T06:47:50.165Z,17.88
2023-03-26T06:57:52.513Z,17.93
2023-03-26T07:07:53.947Z,17.98
2023-03-26T07:17:55.458Z,18.00
2023-03-26T07:28:10.272Z,18.01
2023-03-26T07:38:30.300Z,18.02
2023-03-26T07:48:40.769Z,18.06
2023-03-26T07:59:09.764Z,18.06
2023-03-26T08:09:20.552Z,18.11
2023-03-26T08:19:54.546Z,18.13
2023-03-26T08:30:14.465Z,18.15
2023-03-26T08:40:23.116Z,18.18
2023-03-26T08:51:01.361Z,18.19
2023-03-26T09:01:17.763Z,18.20
2023-03-26T09:11:51.216Z,18.22
2023-03-26T09:22:11.385Z,18.19
2023-03-26T09:32:45.623Z,18.22
2023-03-26T09:43:03.072Z,18.24
2023-03-26T09:53:17.994Z,18.27
2023-03-26T10:03:45.259Z,18.26
2023-03-26T10:14:04.250Z,18.30
2023-03-26T10:24:23.871Z,18.31
2023-03-26T10:34:46.589Z,18.36
2023-03-26T10:45:09.131Z,18.37
2023-03-26T10:55:24.270Z,18.42
2023-03-26T11:05:47.972Z,18.41
2023-03-26T11:16:15.471Z,18.44
2023-03-26T11:26:17.873Z,18.53
2023-03-26T11:36:22.588Z,18.61
2023-03-26T11:46:24.653Z,18.62
2023-03-26T11:57:05.668Z,18.65
2023-03-26T12:07:17.740Z,18.66
2023-03-26T12:17:33.256Z,18.70
2023-03-26T12:27:37.998Z,18.64
2023-03-26T12:37:43.078Z,18.65
2023-03-26T12:48:00.036Z,18.74
2023-03-26T12:58:24.970Z,18.77
2023-03-26T13:08:44.779Z,18.69
2023-03-26T13:19:04.393Z,18.66
2023-03-26T13:29:15.937Z,18.60
2023-03-26T13:39:31.467Z,18.60
2023-03-26T13:49:44.531Z,18.56
2023-03-26T13:59:53.861Z,18.54
2023-03-26T14:09:58.890Z,18.56
2023-03-26T14:20:19.915Z,18.46
2023-03-26T14:30:42.256Z,18.40
2023-03-26T14:41:10.500Z,18.33
2023-03-26T14:52:10.661Z,18.22
2023-03-26T15:02:30.913Z,18.13
2023-03-26T15:12:48.514Z,18.13
2023-03-26T15:22:58.857Z,18.01
2023-03-26T15:33:19.010Z,17.98
2023-03-26T15:43:20.476Z,17.92
2023-03-26T15:53:31.318Z,17.85
2023-03-26T16:03:55.866Z,17.81
2023-03-26T16:14:23.202Z,17.77
2023-03-26T16:24:27.108Z,17.68
2023-03-26T16:35:00.304Z,17.61
2023-03-26T16:45:17.714Z,17.53
2023-03-26T16:55:39.570Z,17.47
2023-03-26T17:05:45.285Z,17.43
2023-03-26T17:15:57.741Z,17.34
2023-03-26T17:26:21.586Z,17.27
2023-03-26T17:36:30.092Z,17.21
2023-03-26T17:46:37.429Z,17.14
2023-03-26T17:56:39.369Z,17.07
2023-03-26T18:06:59.931Z,17.01
2023-03-26T18:17:01.355Z,16.93
2023-03-26T18:27:07.184Z,16.87
2023-03-26T18:37:10.896Z,16.85
2023-03-26T18:47:12.299Z,16.82
2023-03-26T18:57:23.001Z,16.80
2023-03-26T19:07:25.463Z,16.77
2023-03-26T19:17:28.676Z,16.73
2023-03-26T19:27:30.259Z,16.65
2023-03-26T19:37:32.244Z,16.57
2023-03-26T19:47:50.235Z,16.56
2023-03-26T19:57:54.109Z,16.53
2023-03-26T20:07:57.270Z,16.49
2023-03-26T20:17:58.949Z,16.42
2023-03-26T20:28:00.545Z,16.39
2023-03-26T20:38:02.094Z,16.33
2023-03-26T20:48:03.578Z,16.26
2023-03-26T20:58:05.153Z,16.23
2023-03-26T21:08:07.067Z,16.24
2023-03-26T21:18:08.990Z,16.22
2023-03-26T21:28:41.700Z,16.16
2023-03-26T21:38:44.502Z,16.08
2023-03-26T21:48:46.250Z,16.05
2023-03-26T21:58:56.870Z,15.99
2023-03-26T22:08:59.372Z,15.89
2023-03-26T22:19:00.780Z,15.80
2023-03-26T22:29:02.167Z,15.81
2023-03-26T22:39:04.324Z,15.72
2023-03-26T22:49:05.904Z,15.67
2023-03-26T22:59:07.467Z,15.61
2023-03-26T23:09:08.978Z,15.55
2023-03-26T23:19:10.412Z,15.47
2023-03-26T23:29:11.797Z,15.43
2023-03-26T23:39:13.176Z,15.43
2023-03-26T23:49:14.909Z,15.40
2023-03-26T23:59:16.852Z,15.37
